• Join FlightAware (Why Join?)
  • Login
  • US Flag 
01:34AM EDT


 

Airport Tracker/Info


-or-


 

Live Flight TrackerFlight Track Log ✈ DAL1094 ✈ 04-Aug-2009 ✈ KATL - KCVG

Flight Track Log - Related Links

Times and Time Zones

All times are in EDT time to prevent confusion due to time zone crossing. See the DAL1094 flight status page for this flight to view local times or setup timezone preferences in your user account.

Time Position Orientation Groundspeed Altitude Reporting Facility
EDT Latitude Longitude Course Direction KTS MPH feet Rate Location/Type
08:37AM 33.7000 -84.5667 307° West 275 316 6,900  Level Atlanta TRACON
08:37AM 33.7136 -84.5883 North 440 506 7,700 2,280 Climbing Atlanta Center
08:38AM 33.7972 -84.5764 30° Northeast 297 342 10,000 2,220 Climbing Atlanta Center
08:39AM 33.8767 -84.5217 21° North 326 375 12,200 2,100 Climbing Atlanta Center
08:40AM 34.0064 -84.4622 37° Northeast 338 389 14,300 2,760 Climbing Atlanta Center
08:41AM 34.0672 -84.4075 24° Northeast 383 441 17,800 3,000 Climbing Atlanta Center
08:42AM 34.1758 -84.3503 27° Northeast 389 448 20,300 2,220 Climbing Atlanta Center
08:43AM 34.2783 -84.2878 11° North 396 456 22,300 2,100 Climbing Atlanta Center
08:44AM 34.4097 -84.2578 11° North 419 482 24,500 1,920 Climbing Atlanta Center
08:45AM 34.5308 -84.2303 12° North 429 494 26,200 1,800 Climbing Atlanta Center
08:46AM 34.6542 -84.1978 11° North 439 505 28,200 1,980 Climbing Atlanta Center
08:47AM 34.7750 -84.1703 11° North 445 512 30,200 1,740 Climbing Atlanta Center
08:48AM 34.8961 -84.1425 12° North 445 512 31,700 1,380 Climbing Atlanta Center
08:49AM 35.0150 -84.1122 11° North 445 512 33,000 840 Climbing Atlanta Center
08:50AM 35.1319 -84.0844 12° North 445 512 33,400 480 Climbing Atlanta Center
08:51AM 35.2508 -84.0539 11° North 440 506 34,000 300 Climbing Atlanta Center
08:52AM 35.3678 -84.0261 11° North 430 495 34,000 600 Level Atlanta Center
08:53AM 35.4825 -83.9981 10° North 425 489 35,200 960 Climbing Atlanta Center
08:54AM 35.5972 -83.9725 12° North 425 489 36,000 360 Climbing Atlanta Center
08:55AM 35.7119 -83.9417 12° North 425 489 36,000  Level Atlanta Center
08:56AM 35.8247 -83.9133 11° North 420 483 36,000  Level Atlanta Center
08:57AM 35.9372 -83.8875 North 410 472 36,000  Level Atlanta Center
08:58AM 36.0497 -83.8692 North 410 472 36,000  Level Atlanta Center
08:59AM 36.0964 -83.8603 North 411 473 36,000  Level Indianapolis Center
09:00AM 36.2319 -83.8350 North 411 473 36,000  Level Indianapolis Center
09:01AM 36.3447 -83.8147 North 411 473 36,000  Level Indianapolis Center
09:02AM 36.4572 -83.7944 North 406 467 36,000  Level Indianapolis Center
09:03AM 36.5700 -83.7794 North 414 476 36,000  Level Indianapolis Center
09:04AM 36.6828 -83.7617 North 408 470 36,000 -240 Level Indianapolis Center
09:05AM 36.7933 -83.7436 North 408 470 35,600 -960 Descending Indianapolis Center
09:06AM 36.8933 -83.7258 North 408 470 34,100 -1,140 Descending Indianapolis Center
09:07AM 37.0186 -83.7028 North 408 470 33,400 -1,800 Descending Indianapolis Center
09:08AM 37.1314 -83.6847 360° North 408 470 30,500 -3,000 Descending Indianapolis Center
09:09AM 37.2522 -83.6847 331° Northwest 408 470 27,500 -3,120 Descending Indianapolis Center
09:10AM 37.3522 -83.7556 327° Northwest 387 445 24,300 -1,800 Descending Indianapolis Center
09:11AM 37.4461 -83.8317 328° Northwest 397 457 24,000 -180 Descending Indianapolis Center
09:12AM 37.5333 -83.9000 329° Northwest 392 451 24,000 -300 Level Indianapolis Center
09:13AM 37.6250 -83.9686 329° Northwest 392 451 23,500 -840 Descending Indianapolis Center
09:14AM 37.7144 -84.0375 329° Northwest 387 445 22,400 -1,140 Descending Indianapolis Center
09:15AM 37.8017 -84.1036 319° Northwest 382 440 21,300 -5,700 Descending Indianapolis Center
09:16AM 37.8764 -84.1858 314° West 365 420 11,000 -1,800 Descending Indianapolis Center
09:17AM 37.9447 -84.2758 315° West 353 406 17,800 2,460 Climbing Indianapolis Center
09:18AM 38.0108 -84.3611 319° Northwest 345 397 16,000 -1,920 Descending Indianapolis Center
09:19AM 38.0833 -84.4408 358° North 333 383 14,000 -1,800 Descending Indianapolis Center
09:20AM 38.1772 -84.4447 13° North 315 362 12,400 -1,620 Descending Indianapolis Center
09:20AM 38.2167 -84.4333 15° North 359 413 11,800 -1,140 Descending Cincinnati TRACON
09:21AM 38.2667 -84.4167 336° Northwest 348 400 11,300 -840 Descending Cincinnati TRACON
09:21AM 38.2714 -84.4194 17° North 325 374 11,300 -420 Level Indianapolis Center
09:22AM 38.3667 -84.3833 248° West 344 396 10,900 -300 Descending Cincinnati TRACON
09:22AM 38.3633 -84.3939 12° North 347 399 11,000 60 Climbing Indianapolis Center
09:23AM 38.4667 -84.3667 192° South 346 398 11,000 60 Level Cincinnati TRACON
09:23AM 38.4594 -84.3686 17° North 347 399 11,100  Climbing Indianapolis Center
09:24AM 38.5500 -84.3333 North 344 396 11,000 -60 Descending Cincinnati TRACON
09:25AM 38.6333 -84.3167 322° Northwest 341 392 11,000  Level Cincinnati TRACON
09:26AM 38.7167 -84.4000 303° West 313 360 11,000  Level Cincinnati TRACON
09:27AM 38.7500 -84.4667 343° North 315 362 11,000 -420 Level Cincinnati TRACON
09:28AM 38.8333 -84.5000 351° North 285 328 10,300 -840 Descending Cincinnati TRACON
09:29AM 38.9167 -84.5167 309° West 272 313 9,400 -900 Descending Cincinnati TRACON
09:29AM 38.9192 -84.5206 351° North 266 306 9,300 -720 Descending Indianapolis Center
09:30AM 38.9833 -84.5333 360° North 285 328 8,700 -1,080 Descending Cincinnati TRACON
09:31AM 39.0667 -84.5333 351° North 296 341 7,400 -1,440 Descending Cincinnati TRACON
09:32AM 39.1500 -84.5500 293° West 287 330 6,000 -1,440 Descending Cincinnati TRACON
09:33AM 39.1667 -84.6000 218° Southwest 194 223 4,400 -1,440 Descending Cincinnati TRACON
09:34AM 39.1333 -84.6333 195° South 169 194 2,900 -1,380 Descending Cincinnati TRACON
09:35AM 39.0833 -84.6500 195° South 170 196 1,700 -1,380 Descending Cincinnati TRACON